Time,TemperatureF,DewpointF,PressureIn,WindDirection,WindDirectionDegrees,WindSpeedMPH,WindSpeedGustMPH,Humidity,HourlyPrecipIn,Conditions,Clouds,dailyrainin,SoftwareType,DateUTC
2013-02-19 00:02:00,23.0,0.0,-100.00,WNW,285,5.0,7.0,36,-99.99,,,-99.99,,2013-02-19 05:02:00,
2013-02-19 00:13:00,24.0,0.0,-100.00,West,270,5.0,10.0,35,-99.99,,,-99.99,,2013-02-19 05:13:00,
2013-02-19 00:22:00,24.0,0.0,-100.00,West,270,5.0,10.0,35,-99.99,,,-99.99,,2013-02-19 05:22:00,
2013-02-19 00:32:00,24.0,1.0,-100.00,West,270,3.0,6.0,36,-99.99,,,-99.99,,2013-02-19 05:32:00,
2013-02-19 00:43:00,24.0,1.0,-100.00,West,270,3.0,7.0,36,-99.99,,,-99.99,,2013-02-19 05:43:00,
2013-02-19 00:52:00,24.0,1.0,-100.00,West,265,6.0,7.0,37,-99.99,,,-99.99,,2013-02-19 05:52:00,
2013-02-19 01:03:00,24.0,1.0,-100.00,West,265,6.0,7.0,37,-99.99,,,-99.99,,2013-02-19 06:03:00,
2013-02-19 01:12:00,23.0,2.0,-100.00,West,270,2.0,8.0,38,-99.99,,,-99.99,,2013-02-19 06:12:00,
2013-02-19 01:22:00,23.0,3.0,-100.00,West,260,5.0,6.0,41,-99.99,,,-99.99,,2013-02-19 06:22:00,
2013-02-19 01:32:00,23.0,3.0,-100.00,West,265,3.0,7.0,42,-99.99,,,-99.99,,2013-02-19 06:32:00,
2013-02-19 01:42:00,22.0,4.0,-100.00,West,265,5.0,7.0,44,-99.99,,,-99.99,,2013-02-19 06:42:00,
2013-02-19 01:52:00,23.0,4.0,-100.00,West,270,3.0,7.0,44,-99.99,,,-99.99,,2013-02-19 06:52:00,
2013-02-19 02:02:00,23.0,4.0,-100.00,West,260,3.0,7.0,43,-99.99,,,-99.99,,2013-02-19 07:02:00,
2013-02-19 02:12:00,23.0,4.0,-100.00,West,260,2.0,5.0,43,-99.99,,,-99.99,,2013-02-19 07:12:00,
2013-02-19 02:22:00,24.0,4.0,-100.00,WSW,245,2.0,6.0,43,-99.99,,,-99.99,,2013-02-19 07:22:00,
2013-02-19 02:32:00,24.0,5.0,-100.00,WSW,255,2.0,6.0,43,-99.99,,,-99.99,,2013-02-19 07:32:00,
2013-02-19 02:42:00,24.0,5.0,-100.00,SW,220,1.0,5.0,44,-99.99,,,-99.99,,2013-02-19 07:42:00,
2013-02-19 02:52:00,23.0,8.0,-100.00,ESE,120,0.0,2.0,52,-99.99,,,-99.99,,2013-02-19 07:52:00,
2013-02-19 03:02:00,22.0,6.0,-100.00,West,265,1.0,3.0,50,-99.99,,,-99.99,,2013-02-19 08:02:00,
2013-02-19 03:11:00,22.0,7.0,-100.00,West,260,0.0,2.0,53,-99.99,,,-99.99,,2013-02-19 08:11:00,
2013-02-19 03:22:00,22.0,6.0,-100.00,West,275,1.0,2.0,51,-99.99,,,-99.99,,2013-02-19 08:22:00,
2013-02-19 03:32:00,20.0,6.0,-100.00,SE,125,0.0,1.0,55,-99.99,,,-99.99,,2013-02-19 08:32:00,
2013-02-19 03:42:00,19.0,7.0,-100.00,West,260,0.0,1.0,57,-99.99,,,-99.99,,2013-02-19 08:42:00,
2013-02-19 03:52:00,20.0,6.0,-100.00,WSW,255,1.0,3.0,55,-99.99,,,-99.99,,2013-02-19 08:52:00,
2013-02-19 04:02:00,19.0,7.0,-100.00,WNW,295,1.0,3.0,57,-99.99,,,-99.99,,2013-02-19 09:02:00,
2013-02-19 04:11:00,19.0,6.0,-100.00,WSW,245,0.0,2.0,56,-99.99,,,-99.99,,2013-02-19 09:11:00,
2013-02-19 04:22:00,20.0,7.0,-100.00,WNW,285,0.0,2.0,56,-99.99,,,-99.99,,2013-02-19 09:22:00,
2013-02-19 04:30:00,22.0,9.0,-100.00,West,270,1.0,5.0,57,-99.99,,,-99.99,,2013-02-19 09:30:00,
2013-02-19 04:32:00,19.0,8.0,-100.00,East,80,2.0,2.0,61,-99.99,,,-99.99,,2013-02-19 09:32:00,
2013-02-19 04:42:00,21.0,7.0,-100.00,WSW,250,2.0,5.0,56,-99.99,,,-99.99,,2013-02-19 09:42:00,
2013-02-19 04:52:00,21.0,8.0,-100.00,West,260,2.0,5.0,56,-99.99,,,-99.99,,2013-02-19 09:52:00,
2013-02-19 05:02:00,21.0,8.0,-100.00,West,260,2.0,5.0,56,-99.99,,,-99.99,,2013-02-19 10:02:00,
2013-02-19 05:11:00,22.0,9.0,-100.00,West,270,1.0,5.0,57,-99.99,,,-99.99,,2013-02-19 10:11:00,
2013-02-19 05:22:00,22.0,9.0,-100.00,West,270,1.0,5.0,57,-99.99,,,-99.99,,2013-02-19 10:22:00,
2013-02-19 05:42:00,24.0,11.0,-100.00,SW,220,1.0,7.0,57,-99.99,,,-99.99,,2013-02-19 10:42:00,
2013-02-19 05:52:00,23.0,12.0,-100.00,SSW,195,0.0,2.0,60,-99.99,,,-99.99,,2013-02-19 10:52:00,
2013-02-19 06:01:00,23.0,11.0,-100.00,South,185,1.0,2.0,59,-99.99,,,-99.99,,2013-02-19 11:01:00,
2013-02-19 06:11:00,23.0,11.0,-100.00,SW,225,0.0,6.0,60,-99.99,,,-99.99,,2013-02-19 11:11:00,
2013-02-19 06:22:00,23.0,11.0,-100.00,North,10,1.0,6.0,59,-99.99,,,-99.99,,2013-02-19 11:22:00,
2013-02-19 06:32:00,22.0,9.0,-100.00,South,190,0.0,7.0,56,-99.99,,,-99.99,,2013-02-19 11:32:00,
2013-02-19 06:42:00,22.0,11.0,-100.00,SE,145,1.0,6.0,63,-99.99,,,-99.99,,2013-02-19 11:42:00,
2013-02-19 06:52:00,21.0,11.0,-100.00,South,180,1.0,5.0,66,-99.99,,,-99.99,,2013-02-19 11:52:00,
2013-02-19 07:02:00,22.0,10.0,-100.00,SW,230,1.0,8.0,59,-99.99,,,-99.99,,2013-02-19 12:02:00,
2013-02-19 07:12:00,22.0,10.0,-100.00,West,265,2.0,8.0,60,-99.99,,,-99.99,,2013-02-19 12:12:00,
2013-02-19 07:22:00,21.0,10.0,-100.00,WSW,255,1.0,6.0,64,-99.99,,,-99.99,,2013-02-19 12:22:00,
2013-02-19 07:32:00,21.0,10.0,-100.00,WSW,255,2.0,7.0,64,-99.99,,,-99.99,,2013-02-19 12:32:00,
2013-02-19 07:42:00,20.0,10.0,-100.00,South,185,1.0,5.0,64,-99.99,,,-99.99,,2013-02-19 12:42:00,
2013-02-19 07:52:00,20.0,11.0,-100.00,SE,135,0.0,2.0,67,-99.99,,,-99.99,,2013-02-19 12:52:00,
2013-02-19 08:02:00,20.0,10.0,-100.00,East,100,0.0,7.0,66,-99.99,,,-99.99,,2013-02-19 13:02:00,
2013-02-19 08:11:00,22.0,11.0,-100.00,WSW,245,1.0,6.0,63,-99.99,,,-99.99,,2013-02-19 13:11:00,
2013-02-19 08:22:00,23.0,12.0,-100.00,SSE,155,1.0,8.0,61,-99.99,,,-99.99,,2013-02-19 13:22:00,
2013-02-19 08:32:00,24.0,12.0,-100.00,WSW,250,2.0,7.0,59,-99.99,,,-99.99,,2013-02-19 13:32:00,
2013-02-19 08:42:00,24.0,12.0,-100.00,SW,230,2.0,7.0,58,-99.99,,,-99.99,,2013-02-19 13:42:00,
2013-02-19 08:52:00,27.0,13.0,-100.00,West,265,3.0,9.0,57,-99.99,,,-99.99,,2013-02-19 13:52:00,
2013-02-19 09:02:00,28.0,14.0,-100.00,SSW,210,3.0,8.0,57,-99.99,,,-99.99,,2013-02-19 14:02:00,
2013-02-19 09:12:00,29.0,16.0,-100.00,SSW,200,2.0,5.0,57,-99.99,,,-99.99,,2013-02-19 14:12:00,
2013-02-19 09:22:00,30.0,16.0,-100.00,SSW,205,2.0,5.0,55,-99.99,,,-99.99,,2013-02-19 14:22:00,
2013-02-19 09:33:00,32.0,17.0,-100.00,SW,215,2.0,5.0,54,-99.99,,,-99.99,,2013-02-19 14:33:00,
2013-02-19 09:42:00,33.0,18.0,-100.00,SW,225,3.0,6.0,54,-99.99,,,-99.99,,2013-02-19 14:42:00,
2013-02-19 09:52:00,33.0,18.0,-100.00,SW,225,3.0,6.0,54,-99.99,,,-99.99,,2013-02-19 14:52:00,
2013-02-19 10:02:00,36.0,21.0,-100.00,SW,230,3.0,7.0,55,-99.99,,,-99.99,,2013-02-19 15:02:00,
2013-02-19 10:11:00,37.0,22.0,-100.00,SSW,205,3.0,7.0,55,-99.99,,,-99.99,,2013-02-19 15:11:00,
2013-02-19 10:22:00,38.0,24.0,-100.00,SSW,200,8.0,15.0,57,-99.99,,,-99.99,,2013-02-19 15:22:00,
2013-02-19 10:30:00,42.0,28.0,-100.00,SW,215,7.0,16.0,58,-99.99,,,-99.99,,2013-02-19 15:30:00,
2013-02-19 10:32:00,38.0,25.0,-100.00,SW,215,7.0,13.0,58,-99.99,,,-99.99,,2013-02-19 15:32:00,
2013-02-19 10:42:00,40.0,25.0,-100.00,SW,220,6.0,12.0,56,-99.99,,,-99.99,,2013-02-19 15:42:00,
2013-02-19 11:11:00,42.0,28.0,-100.00,SW,215,7.0,16.0,58,-99.99,,,-99.99,,2013-02-19 16:11:00,
2013-02-19 11:22:00,42.0,28.0,-100.00,SW,215,7.0,16.0,58,-99.99,,,-99.99,,2013-02-19 16:22:00,
2013-02-19 11:42:00,43.0,29.0,-100.00,SSW,210,7.0,17.0,57,-99.99,,,-99.99,,2013-02-19 16:42:00,
2013-02-19 11:52:00,43.0,29.0,-100.00,SSW,210,7.0,17.0,57,-99.99,,,-99.99,,2013-02-19 16:52:00,
2013-02-19 12:01:00,45.0,29.0,-100.00,SSW,200,6.0,13.0,54,-99.99,,,-99.99,,2013-02-19 17:01:00,
2013-02-19 12:11:00,45.0,29.0,-100.00,SW,220,9.0,16.0,54,-99.99,,,-99.99,,2013-02-19 17:11:00,
2013-02-19 12:21:00,45.0,29.0,-100.00,SSW,200,12.0,17.0,54,-99.99,,,-99.99,,2013-02-19 17:21:00,
2013-02-19 12:32:00,46.0,30.0,-100.00,SSW,200,7.0,14.0,54,-99.99,,,-99.99,,2013-02-19 17:32:00,
2013-02-19 12:42:00,46.0,31.0,-100.00,SSW,210,13.0,17.0,55,-99.99,,,-99.99,,2013-02-19 17:42:00,
2013-02-19 12:52:00,46.0,32.0,-100.00,SW,215,12.0,17.0,56,-99.99,,,-99.99,,2013-02-19 17:52:00,
2013-02-19 13:02:00,47.0,32.0,-100.00,SSW,210,7.0,17.0,56,-99.99,,,-99.99,,2013-02-19 18:02:00,
2013-02-19 13:11:00,47.0,31.0,-100.00,SSW,200,10.0,15.0,54,-99.99,,,-99.99,,2013-02-19 18:11:00,
2013-02-19 13:21:00,47.0,31.0,-100.00,SW,215,8.0,16.0,54,-99.99,,,-99.99,,2013-02-19 18:21:00,
2013-02-19 13:32:00,47.0,31.0,-100.00,SSW,200,10.0,20.0,53,-99.99,,,-99.99,,2013-02-19 18:32:00,
2013-02-19 13:42:00,47.0,31.0,-100.00,SW,215,9.0,21.0,53,-99.99,,,-99.99,,2013-02-19 18:42:00,
2013-02-19 13:52:00,47.0,31.0,-100.00,SSW,210,13.0,22.0,55,-99.99,,,-99.99,,2013-02-19 18:52:00,
2013-02-19 14:01:00,47.0,31.0,-100.00,SW,215,7.0,22.0,55,-99.99,,,-99.99,,2013-02-19 19:01:00,
2013-02-19 14:11:00,46.0,31.0,-100.00,SW,220,10.0,20.0,55,-99.99,,,-99.99,,2013-02-19 19:11:00,
2013-02-19 14:21:00,46.0,31.0,-100.00,SSW,200,8.0,18.0,56,-99.99,,,-99.99,,2013-02-19 19:21:00,
2013-02-19 14:32:00,46.0,33.0,-100.00,SW,215,13.0,21.0,59,-99.99,,,-99.99,,2013-02-19 19:32:00,
2013-02-19 14:42:00,46.0,33.0,-100.00,SSW,210,10.0,18.0,59,-99.99,,,-99.99,,2013-02-19 19:42:00,
2013-02-19 14:52:00,46.0,33.0,-100.00,SSW,210,10.0,18.0,59,-99.99,,,-99.99,,2013-02-19 19:52:00,
2013-02-19 15:02:00,47.0,32.0,-100.00,SW,215,7.0,18.0,56,-99.99,,,-99.99,,2013-02-19 20:02:00,
2013-02-19 15:12:00,47.0,32.0,-100.00,SSW,200,9.0,21.0,56,-99.99,,,-99.99,,2013-02-19 20:12:00,
2013-02-19 15:22:00,47.0,32.0,-100.00,SW,220,13.0,21.0,57,-99.99,,,-99.99,,2013-02-19 20:22:00,
2013-02-19 15:32:00,47.0,33.0,-100.00,SW,220,14.0,23.0,60,-99.99,,,-99.99,,2013-02-19 20:32:00,
2013-02-19 15:42:00,47.0,34.0,-100.00,SSW,195,10.0,20.0,61,-99.99,,,-99.99,,2013-02-19 20:42:00,
2013-02-19 15:52:00,46.0,34.0,-100.00,SSW,200,7.0,18.0,63,-99.99,,,-99.99,,2013-02-19 20:52:00,
2013-02-19 16:02:00,46.0,35.0,-100.00,SW,215,8.0,14.0,65,-99.99,,,-99.99,,2013-02-19 21:02:00,
2013-02-19 16:10:00,45.0,38.0,-100.00,SSW,210,7.0,18.0,75,-99.99,,,-99.99,,2013-02-19 21:10:00,
2013-02-19 16:11:00,46.0,36.0,-100.00,SSW,200,7.0,16.0,67,-99.99,,,-99.99,,2013-02-19 21:11:00,
2013-02-19 16:21:00,46.0,36.0,-100.00,SSW,195,8.0,20.0,69,-99.99,,,-99.99,,2013-02-19 21:21:00,
2013-02-19 16:32:00,46.0,37.0,-100.00,SSW,200,10.0,18.0,71,-99.99,,,-99.99,,2013-02-19 21:32:00,
2013-02-19 16:42:00,46.0,38.0,-100.00,SSW,205,7.0,16.0,73,-99.99,,,-99.99,,2013-02-19 21:42:00,
2013-02-19 16:51:00,45.0,38.0,-100.00,SSW,210,7.0,18.0,75,-99.99,,,-99.99,,2013-02-19 21:51:00,
2013-02-19 17:02:00,45.0,38.0,-100.00,SSW,210,7.0,18.0,75,-99.99,,,-99.99,,2013-02-19 22:02:00,
2013-02-19 18:01:00,44.0,40.0,-100.00,SSW,205,5.0,10.0,88,-99.99,,,-99.99,,2013-02-19 23:01:00,
2013-02-19 18:11:00,43.0,40.0,-100.00,South,175,3.0,9.0,88,-99.99,,,-99.99,,2013-02-19 23:11:00,
2013-02-19 18:21:00,43.0,40.0,-100.00,South,170,2.0,9.0,89,-99.99,,,-99.99,,2013-02-19 23:21:00,
2013-02-19 18:32:00,43.0,41.0,-100.00,South,170,2.0,8.0,91,-99.99,,,-99.99,,2013-02-19 23:32:00,
2013-02-19 18:42:00,44.0,41.0,-100.00,SSW,200,5.0,8.0,91,-99.99,,,-99.99,,2013-02-19 23:42:00,
2013-02-19 18:52:00,43.0,41.0,-100.00,SSW,195,2.0,7.0,91,-99.99,,,-99.99,,2013-02-19 23:52:00,
2013-02-19 19:02:00,43.0,40.0,-100.00,ESE,105,6.0,10.0,92,-99.99,,,-99.99,,2013-02-20 00:02:00,
2013-02-19 19:11:00,43.0,41.0,-100.00,SSW,205,3.0,9.0,93,-99.99,,,-99.99,,2013-02-20 00:11:00,
2013-02-19 19:22:00,44.0,42.0,-100.00,South,190,5.0,12.0,94,-99.99,,,-99.99,,2013-02-20 00:22:00,
2013-02-19 19:42:00,43.0,42.0,-100.00,SW,225,5.0,8.0,95,-99.99,,,-99.99,,2013-02-20 00:42:00,
2013-02-19 19:52:00,43.0,42.0,-100.00,SW,225,5.0,8.0,95,-99.99,,,-99.99,,2013-02-20 00:52:00,
2013-02-19 20:02:00,43.0,42.0,-100.00,SSW,205,3.0,7.0,95,-99.99,,,-99.99,,2013-02-20 01:02:00,
2013-02-19 20:11:00,43.0,42.0,-100.00,SW,220,3.0,10.0,95,-99.99,,,-99.99,,2013-02-20 01:11:00,
2013-02-19 20:22:00,43.0,42.0,-100.00,South,180,3.0,7.0,95,-99.99,,,-99.99,,2013-02-20 01:22:00,
2013-02-19 20:32:00,43.0,42.0,-100.00,South,170,2.0,7.0,95,-99.99,,,-99.99,,2013-02-20 01:32:00,
2013-02-19 20:42:00,44.0,42.0,-100.00,South,185,3.0,9.0,95,-99.99,,,-99.99,,2013-02-20 01:42:00,
2013-02-19 20:52:00,44.0,43.0,-100.00,South,185,6.0,10.0,96,-99.99,,,-99.99,,2013-02-20 01:52:00,
2013-02-19 21:02:00,44.0,43.0,-100.00,SSW,195,5.0,13.0,96,-99.99,,,-99.99,,2013-02-20 02:02:00,
2013-02-19 21:11:00,44.0,43.0,-100.00,SSW,205,5.0,13.0,95,-99.99,,,-99.99,,2013-02-20 02:11:00,
2013-02-19 21:22:00,44.0,43.0,-100.00,SSW,195,3.0,9.0,96,-99.99,,,-99.99,,2013-02-20 02:22:00,
2013-02-19 21:32:00,45.0,44.0,-100.00,SSW,200,3.0,9.0,96,-99.99,,,-99.99,,2013-02-20 02:32:00,
2013-02-19 21:42:00,45.0,44.0,-100.00,SSW,210,2.0,9.0,96,-99.99,,,-99.99,,2013-02-20 02:42:00,
2013-02-19 21:52:00,45.0,44.0,-100.00,SSW,210,2.0,9.0,96,-99.99,,,-99.99,,2013-02-20 02:52:00,
2013-02-19 22:00:00,44.0,43.0,-100.00,West,265,3.0,12.0,97,-99.99,,,-99.99,,2013-02-20 03:00:00,
2013-02-19 22:02:00,44.0,43.0,-100.00,WNW,285,6.0,12.0,96,-99.99,,,-99.99,,2013-02-20 03:02:00,
2013-02-19 22:12:00,44.0,44.0,-100.00,SW,225,5.0,13.0,97,-99.99,,,-99.99,,2013-02-20 03:12:00,
2013-02-19 22:22:00,45.0,44.0,-100.00,West,260,6.0,12.0,96,-99.99,,,-99.99,,2013-02-20 03:22:00,
2013-02-19 22:32:00,45.0,44.0,-100.00,West,265,6.0,12.0,96,-99.99,,,-99.99,,2013-02-20 03:32:00,
2013-02-19 22:42:00,44.0,43.0,-100.00,West,265,3.0,12.0,97,-99.99,,,-99.99,,2013-02-20 03:42:00,
2013-02-19 22:52:00,44.0,43.0,-100.00,West,265,3.0,12.0,97,-99.99,,,-99.99,,2013-02-20 03:52:00,